sensor_id;sensor_type;location;lat;lon;timestamp;pressure;altitude;pressure_sealevel;temperature;humidity
5350;BME280;2697;42.144;24.794;2023-02-25T00:01:43;-13670.88;;;6.29;100.00
5350;BME280;2697;42.144;24.794;2023-02-25T00:04:09;-14334.56;;;6.28;100.00
5350;BME280;2697;42.144;24.794;2023-02-25T00:06:34;-13997.41;;;6.04;100.00
5350;BME280;2697;42.144;24.794;2023-02-25T00:09:00;-14991.81;;;5.99;100.00
5350;BME280;2697;42.144;24.794;2023-02-25T00:11:25;-15653.72;;;5.93;100.00
5350;BME280;2697;42.144;24.794;2023-02-25T00:13:51;-16644.59;;;5.78;100.00
5350;BME280;2697;42.144;24.794;2023-02-25T00:16:19;-18301.47;;;5.78;100.00
5350;BME280;2697;42.144;24.794;2023-02-25T00:18:44;-18296.91;;;5.62;100.00
5350;BME280;2697;42.144;24.794;2023-02-25T00:21:12;-19296.59;;;5.83;100.00
5350;BME280;2697;42.144;24.794;2023-02-25T00:23:45;-19292.09;;;5.67;100.00
5350;BME280;2697;42.144;24.794;2023-02-25T00:26:12;-19290.75;;;5.63;100.00
5350;BME280;2697;42.144;24.794;2023-02-25T00:28:38;-19290.28;;;5.61;100.00
5350;BME280;2697;42.144;24.794;2023-02-25T00:31:18;-19287.13;;;5.51;100.00
5350;BME280;2697;42.144;24.794;2023-02-25T00:33:44;-19284.44;;;5.41;100.00
5350;BME280;2697;42.144;24.794;2023-02-25T00:36:12;-19287.88;;;5.47;100.00
5350;BME280;2697;42.144;24.794;2023-02-25T00:38:39;-19291.78;;;5.60;100.00
5350;BME280;2697;42.144;24.794;2023-02-25T00:41:06;-19291.94;;;5.60;100.00
5350;BME280;2697;42.144;24.794;2023-02-25T00:43:40;-19289.06;;;5.51;100.00
5350;BME280;2697;42.144;24.794;2023-02-25T00:46:06;-19286.22;;;5.41;100.00
5350;BME280;2697;42.144;24.794;2023-02-25T00:48:32;-19287.56;;;5.46;100.00
5350;BME280;2697;42.144;24.794;2023-02-25T00:51:05;-19288.03;;;5.47;100.00
5350;BME280;2697;42.144;24.794;2023-02-25T00:53:31;-19288.94;;;5.50;100.00
5350;BME280;2697;42.144;24.794;2023-02-25T00:56:00;-19286.81;;;5.43;100.00
5350;BME280;2697;42.144;24.794;2023-02-25T00:58:26;-19283.66;;;5.32;100.00
5350;BME280;2697;42.144;24.794;2023-02-25T01:00:52;-19282.44;;;5.28;100.00
5350;BME280;2697;42.144;24.794;2023-02-25T01:03:17;-19281.09;;;5.24;100.00
5350;BME280;2697;42.144;24.794;2023-02-25T01:05:42;-19279.00;;;5.17;100.00
5350;BME280;2697;42.144;24.794;2023-02-25T01:08:15;-19275.84;;;5.06;100.00
5350;BME280;2697;42.144;24.794;2023-02-25T01:10:40;-19277.94;;;5.13;100.00
5350;BME280;2697;42.144;24.794;2023-02-25T01:13:05;-19283.97;;;5.33;100.00
5350;BME280;2697;42.144;24.794;2023-02-25T01:15:31;-19285.75;;;5.39;100.00
5350;BME280;2697;42.144;24.794;2023-02-25T01:17:56;-19287.56;;;5.46;100.00
5350;BME280;2697;42.144;24.794;2023-02-25T01:20:21;-19289.69;;;5.53;100.00
5350;BME280;2697;42.144;24.794;2023-02-25T01:22:48;-19288.94;;;5.50;100.00
5350;BME280;2697;42.144;24.794;2023-02-25T01:25:13;-19285.47;;;5.38;100.00
5350;BME280;2697;42.144;24.794;2023-02-25T01:27:42;-19287.88;;;5.47;100.00
5350;BME280;2697;42.144;24.794;2023-02-25T01:30:08;-19281.13;;;5.30;100.00
5350;BME280;2697;42.144;24.794;2023-02-25T01:32:34;-19279.47;;;5.25;100.00
5350;BME280;2697;42.144;24.794;2023-02-25T01:34:59;-19281.69;;;5.26;100.00
5350;BME280;2697;42.144;24.794;2023-02-25T01:37:25;-19279.13;;;5.17;100.00
5350;BME280;2697;42.144;24.794;2023-02-25T01:39:50;-19278.25;;;5.14;100.00
5350;BME280;2697;42.144;24.794;2023-02-25T01:42:16;-19275.38;;;5.04;100.00
5350;BME280;2697;42.144;24.794;2023-02-25T01:47:44;-19274.19;;;5.00;100.00
5350;BME280;2697;42.144;24.794;2023-02-25T01:50:11;-19270.25;;;4.87;100.00
5350;BME280;2697;42.144;24.794;2023-02-25T01:52:38;-19270.13;;;4.86;100.00
5350;BME280;2697;42.144;24.794;2023-02-25T01:55:05;-18941.56;;;5.01;100.00
5350;BME280;2697;42.144;24.794;2023-02-25T01:57:31;-18943.50;;;5.07;100.00
5350;BME280;2697;42.144;24.794;2023-02-25T01:59:56;-18606.81;;;4.87;100.00
5350;BME280;2697;42.144;24.794;2023-02-25T02:02:22;-18604.63;;;4.79;100.00
5350;BME280;2697;42.144;24.794;2023-02-25T02:04:51;-18267.31;;;4.56;100.00
5350;BME280;2697;42.144;24.794;2023-02-25T02:07:18;-18265.75;;;4.50;100.00
5350;BME280;2697;42.144;24.794;2023-02-25T02:09:44;-18266.75;;;4.54;100.00
5350;BME280;2697;42.144;24.794;2023-02-25T02:12:21;-17937.22;;;4.58;100.00
5350;BME280;2697;42.144;24.794;2023-02-25T02:14:47;-17939.03;;;4.65;100.00
5350;BME280;2697;42.144;24.794;2023-02-25T02:20:15;-16947.38;;;4.67;100.00
5350;BME280;2697;42.144;24.794;2023-02-25T02:25:24;-16290.97;;;4.89;100.00
5350;BME280;2697;42.144;24.794;2023-02-25T02:28:07;-15960.44;;;4.91;100.00
5350;BME280;2697;42.144;24.794;2023-02-25T02:39:13;-15296.22;;;4.81;100.00
5350;BME280;2697;42.144;24.794;2023-02-25T02:41:53;-14964.00;;;4.76;100.00
5350;BME280;2697;42.144;24.794;2023-02-25T02:44:44;-14965.97;;;4.85;100.00
5350;BME280;2697;42.144;24.794;2023-02-25T02:47:22;-14968.13;;;4.95;100.00
5350;BME280;2697;42.144;24.794;2023-02-25T02:50:03;-14963.06;;;4.72;100.00
5350;BME280;2697;42.144;24.794;2023-02-25T02:52:32;-14959.50;;;4.56;100.00
5350;BME280;2697;42.144;24.794;2023-02-25T02:55:05;-14627.44;;;4.51;100.00
5350;BME280;2697;42.144;24.794;2023-02-25T02:57:34;-14960.78;;;4.62;100.00
5350;BME280;2697;42.144;24.794;2023-02-25T03:00:12;-14960.09;;;4.59;100.00
5350;BME280;2697;42.144;24.794;2023-02-25T03:02:50;-14633.16;;;4.77;100.00
5350;BME280;2697;42.144;24.794;2023-02-25T03:05:17;-14300.09;;;4.68;100.00
5350;BME280;2697;42.144;24.794;2023-02-25T03:08:03;-14300.66;;;4.71;100.00
5350;BME280;2697;42.144;24.794;2023-02-25T03:10:30;-13970.53;;;4.75;100.00
5350;BME280;2697;42.144;24.794;2023-02-25T03:12:56;-13967.63;;;4.62;100.00
5350;BME280;2697;42.144;24.794;2023-02-25T03:15:22;-14296.38;;;4.51;100.00
5350;BME280;2697;42.144;24.794;2023-02-25T03:17:53;-14292.53;;;4.33;100.00
5350;BME280;2697;42.144;24.794;2023-02-25T03:20:26;-14622.63;;;4.29;100.00
5350;BME280;2697;42.144;24.794;2023-02-25T03:22:54;-14621.72;;;4.25;100.00
5350;BME280;2697;42.144;24.794;2023-02-25T03:25:30;-14955.25;;;4.38;100.00
5350;BME280;2697;42.144;24.794;2023-02-25T03:28:02;-14953.88;;;4.32;100.00
5350;BME280;2697;42.144;24.794;2023-02-25T03:30:47;-14953.88;;;4.32;100.00
5350;BME280;2697;42.144;24.794;2023-02-25T03:35:46;-14620.81;;;4.21;100.00
5350;BME280;2697;42.144;24.794;2023-02-25T03:38:17;-14619.69;;;4.16;100.00
5350;BME280;2697;42.144;24.794;2023-02-25T03:40:46;-14288.81;;;4.16;100.00
5350;BME280;2697;42.144;24.794;2023-02-25T03:43:22;-14290.25;;;4.22;100.00
5350;BME280;2697;42.144;24.794;2023-02-25T03:45:49;-14290.78;;;4.25;100.00
5350;BME280;2697;42.144;24.794;2023-02-25T03:48:16;-13627.72;;;4.18;100.00
5350;BME280;2697;42.144;24.794;2023-02-25T03:50:46;-13628.97;;;4.24;100.00
5350;BME280;2697;42.144;24.794;2023-02-25T03:53:12;-13629.09;;;4.25;100.00
5350;BME280;2697;42.144;24.794;2023-02-25T03:55:38;-13297.56;;;4.22;100.00
5350;BME280;2697;42.144;24.794;2023-02-25T03:58:06;-13294.13;;;4.05;100.00
5350;BME280;2697;42.144;24.794;2023-02-25T04:00:32;-12962.81;;;4.02;100.00
5350;BME280;2697;42.144;24.794;2023-02-25T04:02:58;-12961.16;;;3.93;100.00
5350;BME280;2697;42.144;24.794;2023-02-25T04:05:24;-12960.06;;;3.88;100.00
5350;BME280;2697;42.144;24.794;2023-02-25T04:07:54;-12958.88;;;3.82;100.00
5350;BME280;2697;42.144;24.794;2023-02-25T04:10:20;-13288.25;;;3.75;100.00
5350;BME280;2697;42.144;24.794;2023-02-25T04:12:46;-12956.00;;;3.67;100.00
5350;BME280;2697;42.144;24.794;2023-02-25T04:15:12;-12948.72;;;3.29;100.00
5350;BME280;2697;42.144;24.794;2023-02-25T04:17:41;-12942.78;;;2.99;100.00
5350;BME280;2697;42.144;24.794;2023-02-25T04:20:07;-12606.47;;;2.67;100.00
5350;BME280;2697;42.144;24.794;2023-02-25T04:22:33;-12277.47;;;2.73;100.00
5350;BME280;2697;42.144;24.794;2023-02-25T04:24:58;-11611.06;;;2.38;100.00
5350;BME280;2697;42.144;24.794;2023-02-25T04:27:23;-11277.25;;;2.16;100.00
5350;BME280;2697;42.144;24.794;2023-02-25T04:29:50;-11276.91;;;2.14;100.00
5350;BME280;2697;42.144;24.794;2023-02-25T04:32:15;-10942.84;;;1.88;100.00
5350;BME280;2697;42.144;24.794;2023-02-25T04:34:41;-10944.91;;;2.01;100.00
5350;BME280;2697;42.144;24.794;2023-02-25T04:37:06;-10616.66;;;2.12;100.00
5350;BME280;2697;42.144;24.794;2023-02-25T04:39:33;-10617.53;;;2.17;100.00
5350;BME280;2697;42.144;24.794;2023-02-25T04:41:59;-10287.41;;;2.17;100.00
5350;BME280;2697;42.144;24.794;2023-02-25T04:44:24;-10288.72;;;2.25;100.00
5350;BME280;2697;42.144;24.794;2023-02-25T04:46:50;-9956.91;;;2.14;100.00
5350;BME280;2697;42.144;24.794;2023-02-25T04:49:20;-9625.84;;;2.07;100.00
5350;BME280;2697;42.144;24.794;2023-02-25T04:51:47;-9296.59;;;2.13;100.00
5350;BME280;2697;42.144;24.794;2023-02-25T04:54:19;-8635.31;;;2.05;100.00
5350;BME280;2697;42.144;24.794;2023-02-25T04:56:46;-8634.16;;;1.95;100.00
5350;BME280;2697;42.144;24.794;2023-02-25T04:59:12;-8633.66;;;1.91;100.00
5350;BME280;2697;42.144;24.794;2023-02-25T05:01:38;-8301.41;;;1.73;100.00
5350;BME280;2697;42.144;24.794;2023-02-25T05:04:04;-8301.34;;;1.73;100.00
5350;BME280;2697;42.144;24.794;2023-02-25T05:06:29;-8300.94;;;1.69;100.00
5350;BME280;2697;42.144;24.794;2023-02-25T05:08:56;-8300.56;;;1.66;100.00
5350;BME280;2697;42.144;24.794;2023-02-25T05:11:23;-8298.63;;;1.50;100.00
5350;BME280;2697;42.144;24.794;2023-02-25T05:13:49;-7640.50;;;1.65;100.00
5350;BME280;2697;42.144;24.794;2023-02-25T05:16:16;-6980.66;;;1.67;100.00
5350;BME280;2697;42.144;24.794;2023-02-25T05:18:44;-6320.84;;;1.71;100.00
5350;BME280;2697;42.144;24.794;2023-02-25T05:21:12;-5660.25;;;1.68;100.00
5350;BME280;2697;42.144;24.794;2023-02-25T05:23:39;-5660.75;;;1.75;100.00
5350;BME280;2697;42.144;24.794;2023-02-25T05:26:05;-5661.03;;;1.78;100.00
5350;BME280;2697;42.144;24.794;2023-02-25T05:28:31;-5991.50;;;1.81;100.00
5350;BME280;2697;42.144;24.794;2023-02-25T05:30:57;-5993.41;;;2.05;100.00
5350;BME280;2697;42.144;24.794;2023-02-25T05:33:22;-5001.69;;;1.96;100.00
5350;BME280;2697;42.144;24.794;2023-02-25T05:35:49;-4671.25;;;1.96;100.00
5350;BME280;2697;42.144;24.794;2023-02-25T05:38:14;-5002.78;;;2.13;100.00
5350;BME280;2697;42.144;24.794;2023-02-25T05:40:40;-5334.53;;;2.32;100.00
5350;BME280;2697;42.144;24.794;2023-02-25T05:43:05;-5334.81;;;2.36;100.00
5350;BME280;2697;42.144;24.794;2023-02-25T05:45:31;-5667.38;;;2.62;100.00
5350;BME280;2697;42.144;24.794;2023-02-25T05:47:56;-5667.16;;;2.59;100.00
5350;BME280;2697;42.144;24.794;2023-02-25T05:50:22;-6658.44;;;2.52;100.00
5350;BME280;2697;42.144;24.794;2023-02-25T05:52:47;-6988.00;;;2.42;100.00
5350;BME280;2697;42.144;24.794;2023-02-25T05:55:12;-7652.38;;;2.75;100.00
5350;BME280;2697;42.144;24.794;2023-02-25T05:57:40;-8985.91;;;3.63;100.00
5350;BME280;2697;42.144;24.794;2023-02-25T06:00:06;-9310.88;;;3.19;100.00
5350;BME280;2697;42.144;24.794;2023-02-25T06:02:41;-10643.06;;;3.81;100.00
5350;BME280;2697;42.144;24.794;2023-02-25T06:05:08;-10634.00;;;3.23;100.00
5350;BME280;2697;42.144;24.794;2023-02-25T06:07:34;-11629.84;;;3.47;100.00
5350;BME280;2697;42.144;24.794;2023-02-25T06:10:00;-12290.50;;;3.44;100.00
5350;BME280;2697;42.144;24.794;2023-02-25T06:12:30;-13292.41;;;3.96;100.00
5350;BME280;2697;42.144;24.794;2023-02-25T06:14:56;-13955.34;;;4.03;100.00
5350;BME280;2697;42.144;24.794;2023-02-25T06:17:22;-14953.19;;;4.28;100.00
5350;BME280;2697;42.144;24.794;2023-02-25T06:19:51;-15610.84;;;4.12;100.00
5350;BME280;2697;42.144;24.794;2023-02-25T06:22:18;-16930.56;;;4.02;100.00
5350;BME280;2697;42.144;24.794;2023-02-25T06:24:43;-18248.38;;;3.88;100.00
5350;BME280;2697;42.144;24.794;2023-02-25T06:27:08;-19247.69;;;4.17;100.00
5350;BME280;2697;42.144;24.794;2023-02-25T06:29:34;-19251.44;;;4.23;100.00
5350;BME280;2697;42.144;24.794;2023-02-25T06:32:00;-18909.06;;;3.89;100.00
5350;BME280;2697;42.144;24.794;2023-02-25T06:34:25;-19243.63;;;3.97;100.00
5350;BME280;2697;42.144;24.794;2023-02-25T06:36:57;-19263.63;;;4.65;100.00
5350;BME280;2697;42.144;24.794;2023-02-25T06:39:22;-19290.75;;;5.63;100.00
5350;BME280;2697;42.144;24.794;2023-02-25T06:41:48;-14658.19;;;5.91;100.00
5350;BME280;2697;42.144;24.794;2023-02-25T06:44:13;-10671.69;;;5.64;100.00
5350;BME280;2697;42.144;24.794;2023-02-25T06:46:39;-5686.69;;;5.19;100.00
5350;BME280;2697;42.144;24.794;2023-02-25T06:49:04;-8681.28;;;5.76;100.00
5350;BME280;2697;42.144;24.794;2023-02-25T06:51:29;-5358.28;;;5.72;100.00
5350;BME280;2697;42.144;24.794;2023-02-25T06:53:55;-5361.16;;;6.14;100.00
5350;BME280;2697;42.144;24.794;2023-02-25T06:56:20;-3032.78;;;6.36;100.00
5350;BME280;2697;42.144;24.794;2023-02-25T06:58:46;631.69;;;6.49;100.00
5350;BME280;2697;42.144;24.794;2023-02-25T07:01:14;4292.41;;;5.62;100.00
5350;BME280;2697;42.144;24.794;2023-02-25T07:03:41;-1034.66;;;6.08;100.00
5350;BME280;2697;42.144;24.794;2023-02-25T07:06:08;-701.66;;;6.15;100.00
5350;BME280;2697;42.144;24.794;2023-02-25T07:08:33;2630.69;;;6.25;100.00
5350;BME280;2697;42.144;24.794;2023-02-25T07:13:46;3961.28;;;5.87;100.00
5350;BME280;2697;42.144;24.794;2023-02-25T07:16:13;2965.03;;;6.39;100.00
5350;BME280;2697;42.144;24.794;2023-02-25T07:18:39;7302.47;;;6.38;100.00
5350;BME280;2697;42.144;24.794;2023-02-25T07:21:05;11308.72;;;6.28;100.00
5350;BME280;2697;42.144;24.794;2023-02-25T07:23:30;8973.22;;;6.45;100.00
5350;BME280;2697;42.144;24.794;2023-02-25T07:25:56;12318.84;;;6.63;100.00
5350;BME280;2697;42.144;24.794;2023-02-25T07:28:21;14332.66;;;6.90;100.00
5350;BME280;2697;42.144;24.794;2023-02-25T07:30:47;18020.44;;;7.02;100.00
5350;BME280;2697;42.144;24.794;2023-02-25T07:33:12;16013.66;;;7.14;100.00
5350;BME280;2697;42.144;24.794;2023-02-25T07:35:37;21038.06;;;7.03;100.00
5350;BME280;2697;42.144;24.794;2023-02-25T07:38:03;22412.47;;;7.88;100.00
5350;BME280;2697;42.144;24.794;2023-02-25T07:40:28;42953.44;;;7.79;100.00
5350;BME280;2697;42.144;24.794;2023-02-25T07:42:53;40223.31;;;7.35;100.00
5350;BME280;2697;42.144;24.794;2023-02-25T07:45:19;33471.72;;;7.11;100.00
5350;BME280;2697;42.144;24.794;2023-02-25T07:47:44;28106.72;;;7.43;100.00
5350;BME280;2697;42.144;24.794;2023-02-25T07:50:11;35851.91;;;7.51;100.00
5350;BME280;2697;42.144;24.794;2023-02-25T07:52:36;34515.72;;;7.70;100.00
5350;BME280;2697;42.144;24.794;2023-02-25T07:55:05;40263.28;;;7.94;100.00
5350;BME280;2697;42.144;24.794;2023-02-25T07:57:31;56154.59;;;7.89;100.00
5350;BME280;2697;42.144;24.794;2023-02-25T07:59:56;43647.16;;;8.04;100.00
5350;BME280;2697;42.144;24.794;2023-02-25T08:02:23;51074.84;;;7.89;100.00
5350;BME280;2697;42.144;24.794;2023-02-25T08:04:48;52128.44;;;8.33;100.00
5350;BME280;2697;42.144;24.794;2023-02-25T08:07:14;50055.41;;;7.84;100.00
5350;BME280;2697;42.144;24.794;2023-02-25T08:09:39;36577.25;;;8.35;100.00
5350;BME280;2697;42.144;24.794;2023-02-25T08:12:05;51508.38;;;8.99;100.00
5350;BME280;2697;42.144;24.794;2023-02-25T08:14:31;83877.50;;;9.18;100.00
5350;BME280;2697;42.144;24.794;2023-02-25T08:16:56;114096.50;;;9.26;100.00
5350;BME280;2697;42.144;24.794;2023-02-25T08:19:22;129075.63;;;9.89;100.00
5350;BME280;2697;42.144;24.794;2023-02-25T08:21:48;147450.63;;;10.31;100.00
5350;BME280;2697;42.144;24.794;2023-02-25T08:24:13;155239.94;;;10.37;100.00
5350;BME280;2697;42.144;24.794;2023-02-25T08:26:39;155211.00;;;10.25;100.00
5350;BME280;2697;42.144;24.794;2023-02-25T08:29:05;155154.31;;;10.04;100.00
5350;BME280;2697;42.144;24.794;2023-02-25T08:31:32;155175.38;;;10.12;100.00
5350;BME280;2697;42.144;24.794;2023-02-25T08:33:58;155197.75;;;10.20;100.00
5350;BME280;2697;42.144;24.794;2023-02-25T08:36:27;155270.22;;;10.48;100.00
5350;BME280;2697;42.144;24.794;2023-02-25T08:38:53;155280.78;;;10.52;100.00
5350;BME280;2697;42.144;24.794;2023-02-25T08:41:20;155249.16;;;10.40;100.00
5350;BME280;2697;42.144;24.794;2023-02-25T08:43:53;155317.63;;;10.67;100.00
5350;BME280;2697;42.144;24.794;2023-02-25T08:46:21;155234.69;;;10.35;100.00
5350;BME280;2697;42.144;24.794;2023-02-25T08:48:50;155193.81;;;10.19;100.00
5350;BME280;2697;42.144;24.794;2023-02-25T08:51:16;155291.28;;;10.56;100.00
5350;BME280;2697;42.144;24.794;2023-02-25T08:53:42;155268.91;;;10.48;100.00
5350;BME280;2697;42.144;24.794;2023-02-25T08:56:10;155317.63;;;10.67;100.00
5350;BME280;2697;42.144;24.794;2023-02-25T08:58:36;155311.06;;;10.64;100.00
5350;BME280;2697;42.144;24.794;2023-02-25T09:01:12;155286.03;;;10.54;100.00
5350;BME280;2697;42.144;24.794;2023-02-25T09:03:40;155291.28;;;10.56;100.00
5350;BME280;2697;42.144;24.794;2023-02-25T09:06:25;155388.75;;;10.94;100.00
5350;BME280;2697;42.144;24.794;2023-02-25T09:08:52;155293.91;;;10.57;100.00
5350;BME280;2697;42.144;24.794;2023-02-25T09:11:20;155322.88;;;10.69;100.00
5350;BME280;2697;42.144;24.794;2023-02-25T09:13:46;155412.47;;;11.03;100.00
5350;BME280;2697;42.144;24.794;2023-02-25T09:16:11;155466.47;;;11.24;100.00
5350;BME280;2697;42.144;24.794;2023-02-25T09:18:39;155525.78;;;11.47;100.00
5350;BME280;2697;42.144;24.794;2023-02-25T09:21:05;155552.13;;;11.57;100.00
5350;BME280;2697;42.144;24.794;2023-02-25T09:23:30;155562.66;;;11.61;100.00
5350;BME280;2697;42.144;24.794;2023-02-25T09:25:56;155509.94;;;11.41;100.00
5350;BME280;2697;42.144;24.794;2023-02-25T09:28:21;155415.09;;;11.04;100.00
5350;BME280;2697;42.144;24.794;2023-02-25T09:30:46;155531.03;;;11.49;100.00
5350;BME280;2697;42.144;24.794;2023-02-25T09:33:13;155582.41;;;11.69;100.00
5350;BME280;2697;42.144;24.794;2023-02-25T09:35:38;155623.34;;;11.85;100.00
5350;BME280;2697;42.144;24.794;2023-02-25T09:38:05;155582.41;;;11.69;100.00
5350;BME280;2697;42.144;24.794;2023-02-25T09:40:31;155628.59;;;11.87;100.00
5350;BME280;2697;42.144;24.794;2023-02-25T09:43:01;155610.16;;;11.80;100.00
5350;BME280;2697;42.144;24.794;2023-02-25T09:45:32;155695.84;;;12.13;100.00
5350;BME280;2697;42.144;24.794;2023-02-25T09:47:59;155811.91;;;12.58;100.00
5350;BME280;2697;42.144;24.794;2023-02-25T09:50:31;155851.44;;;12.73;100.00
5350;BME280;2697;42.144;24.794;2023-02-25T09:53:12;155823.75;;;12.62;100.00
5350;BME280;2697;42.144;24.794;2023-02-25T09:55:43;155789.47;;;12.49;100.00
5350;BME280;2697;42.144;24.794;2023-02-25T10:01:28;155904.19;;;12.93;100.00
5350;BME280;2697;42.144;24.794;2023-02-25T10:06:09;155979.47;;;13.22;100.00
5350;BME280;2697;42.144;24.794;2023-02-25T10:11:33;156005.88;;;13.32;100.00
5350;BME280;2697;42.144;24.794;2023-02-25T10:17:06;156283.06;;;14.39;100.00
5350;BME280;2697;42.144;24.794;2023-02-25T10:23:09;156509.06;;;15.26;93.56
5350;BME280;2697;42.144;24.794;2023-02-25T10:25:43;156608.25;;;15.64;90.35
5350;BME280;2697;42.144;24.794;2023-02-25T10:28:16;156503.75;;;15.24;85.86
5350;BME280;2697;42.144;24.794;2023-02-25T10:30:58;156378.22;;;14.76;90.96
5350;BME280;2697;42.144;24.794;2023-02-25T10:33:26;156435.03;;;14.98;88.43
5350;BME280;2697;42.144;24.794;2023-02-25T10:36:22;156425.78;;;14.94;88.60
5350;BME280;2697;42.144;24.794;2023-02-25T10:38:51;156628.03;;;15.72;84.21
5350;BME280;2697;42.144;24.794;2023-02-25T10:41:19;156526.22;;;15.33;84.71
5350;BME280;2697;42.144;24.794;2023-02-25T10:43:48;156621.44;;;15.70;82.93
5350;BME280;2697;42.144;24.794;2023-02-25T10:46:37;156735.16;;;16.13;79.41
5350;BME280;2697;42.144;24.794;2023-02-25T10:49:21;156531.50;;;15.35;81.60
5350;BME280;2697;42.144;24.794;2023-02-25T10:54:34;156587.03;;;15.56;82.39
5350;BME280;2697;42.144;24.794;2023-02-25T10:57:13;156576.44;;;15.52;81.28
5350;BME280;2697;42.144;24.794;2023-02-25T10:59:40;156436.38;;;14.98;84.85
5350;BME280;2697;42.144;24.794;2023-02-25T11:02:24;156520.94;;;15.31;84.44
5350;BME280;2697;42.144;24.794;2023-02-25T11:04:52;156708.72;;;16.03;78.26
5350;BME280;2697;42.144;24.794;2023-02-25T11:07:40;156547.38;;;15.41;80.99
5350;BME280;2697;42.144;24.794;2023-02-25T11:12:42;156472.03;;;15.12;84.59
5350;BME280;2697;42.144;24.794;2023-02-25T11:15:32;156378.22;;;14.76;84.15
5350;BME280;2697;42.144;24.794;2023-02-25T11:20:31;156420.50;;;14.92;83.28
5350;BME280;2697;42.144;24.794;2023-02-25T11:22:57;156417.88;;;14.91;83.53
5350;BME280;2697;42.144;24.794;2023-02-25T11:25:34;156452.22;;;15.04;82.73
5350;BME280;2697;42.144;24.794;2023-02-25T11:28:01;156497.16;;;15.22;81.98
5350;BME280;2697;42.144;24.794;2023-02-25T11:30:36;156528.84;;;15.34;80.74
5350;BME280;2697;42.144;24.794;2023-02-25T11:33:27;156518.31;;;15.30;80.76
5350;BME280;2697;42.144;24.794;2023-02-25T11:35:56;156543.41;;;15.39;79.36
5350;BME280;2697;42.144;24.794;2023-02-25T11:40:52;156630.72;;;15.73;75.20
5350;BME280;2697;42.144;24.794;2023-02-25T11:43:19;156626.72;;;15.72;75.48
5350;BME280;2697;42.144;24.794;2023-02-25T11:45:56;156501.09;;;15.23;77.50
5350;BME280;2697;42.144;24.794;2023-02-25T11:48:47;156706.06;;;16.02;74.71
5350;BME280;2697;42.144;24.794;2023-02-25T11:51:24;156723.22;;;16.09;73.36
5350;BME280;2697;42.144;24.794;2023-02-25T11:56:37;156878.06;;;16.68;71.06
5350;BME280;2697;42.144;24.794;2023-02-25T11:59:38;156954.78;;;16.98;68.79
5350;BME280;2697;42.144;24.794;2023-02-25T12:02:28;157065.97;;;17.41;67.10
5350;BME280;2697;42.144;24.794;2023-02-25T12:08:02;156870.03;;;16.65;64.91
5350;BME280;2697;42.144;24.794;2023-02-25T12:14:01;156928.34;;;16.88;64.56
5350;BME280;2697;42.144;24.794;2023-02-25T12:39:06;156973.31;;;17.05;62.36
5350;BME280;2697;42.144;24.794;2023-02-25T13:06:49;157251.34;;;18.12;57.80
5350;BME280;2697;42.144;24.794;2023-02-25T13:09:34;157263.31;;;18.16;57.27
5350;BME280;2697;42.144;24.794;2023-02-25T13:12:36;157251.34;;;18.12;57.57
5350;BME280;2697;42.144;24.794;2023-02-25T13:15:11;157042.16;;;17.31;59.70
5350;BME280;2697;42.144;24.794;2023-02-25T13:24:16;157275.19;;;18.21;58.44
5350;BME280;2697;42.144;24.794;2023-02-25T13:26:47;157208.97;;;17.95;59.03
5350;BME280;2697;42.144;24.794;2023-02-25T13:34:47;157272.56;;;18.20;57.81
5350;BME280;2697;42.144;24.794;2023-02-25T13:45:55;157281.81;;;18.23;57.99
5350;BME280;2697;42.144;24.794;2023-02-25T13:51:07;157521.66;;;19.16;54.90
5350;BME280;2697;42.144;24.794;2023-02-25T13:57:10;157333.50;;;18.43;56.17
5350;BME280;2697;42.144;24.794;2023-02-25T14:05:26;157356.03;;;18.52;55.87
5350;BME280;2697;42.144;24.794;2023-02-25T14:08:11;157428.94;;;18.80;55.08
5350;BME280;2697;42.144;24.794;2023-02-25T14:10:53;157410.38;;;18.73;55.56
5350;BME280;2697;42.144;24.794;2023-02-25T14:13:23;157357.34;;;18.52;55.94
5350;BME280;2697;42.144;24.794;2023-02-25T14:16:09;157390.50;;;18.65;55.52
5350;BME280;2697;42.144;24.794;2023-02-25T14:32:42;157352.00;;;18.50;54.75
5350;BME280;2697;42.144;24.794;2023-02-25T14:38:14;157165.31;;;17.79;56.44
5350;BME280;2697;42.144;24.794;2023-02-25T14:40:53;157063.28;;;17.39;57.90
5350;BME280;2697;42.144;24.794;2023-02-25T14:43:30;156983.91;;;17.09;59.09
5350;BME280;2697;42.144;24.794;2023-02-25T14:46:30;156961.41;;;17.00;59.79
5350;BME280;2697;42.144;24.794;2023-02-25T14:49:05;156912.44;;;16.81;61.06
5350;BME280;2697;42.144;24.794;2023-02-25T15:00:59;156834.34;;;16.51;64.23
5350;BME280;2697;42.144;24.794;2023-02-25T15:06:05;156893.91;;;16.74;63.09
5350;BME280;2697;42.144;24.794;2023-02-25T15:22:22;156774.84;;;16.29;66.21
5350;BME280;2697;42.144;24.794;2023-02-25T15:24:50;156758.97;;;16.22;66.64
5350;BME280;2697;42.144;24.794;2023-02-25T15:30:07;156735.16;;;16.13;67.34
5350;BME280;2697;42.144;24.794;2023-02-25T15:32:56;156735.16;;;16.13;67.00
5350;BME280;2697;42.144;24.794;2023-02-25T15:43:01;156610.88;;;15.65;69.93
5350;BME280;2697;42.144;24.794;2023-02-25T15:53:37;156536.81;;;15.37;72.54
5350;BME280;2697;42.144;24.794;2023-02-25T16:06:19;156494.50;;;15.21;72.18
5350;BME280;2697;42.144;24.794;2023-02-25T16:09:08;156503.75;;;15.24;72.15
5350;BME280;2697;42.144;24.794;2023-02-25T16:14:21;156415.25;;;14.90;72.83
5350;BME280;2697;42.144;24.794;2023-02-25T16:16:54;156407.28;;;14.87;72.70
5350;BME280;2697;42.144;24.794;2023-02-25T16:19:21;156362.34;;;14.70;73.70
5350;BME280;2697;42.144;24.794;2023-02-25T16:21:52;156322.75;;;14.54;74.56
5350;BME280;2697;42.144;24.794;2023-02-25T16:24:21;156329.34;;;14.57;75.24
5350;BME280;2697;42.144;24.794;2023-02-25T16:35:11;156168.19;;;13.95;80.16
5350;BME280;2697;42.144;24.794;2023-02-25T16:37:45;156194.59;;;14.05;80.02
5350;BME280;2697;42.144;24.794;2023-02-25T16:40:25;156180.09;;;14.00;81.29
5350;BME280;2697;42.144;24.794;2023-02-25T16:42:52;156170.88;;;13.96;81.72
5350;BME280;2697;42.144;24.794;2023-02-25T16:45:28;156139.16;;;13.84;81.77
5350;BME280;2697;42.144;24.794;2023-02-25T16:47:57;156158.97;;;13.91;81.89
5350;BME280;2697;42.144;24.794;2023-02-25T16:50:24;156164.22;;;13.93;81.85
5350;BME280;2697;42.144;24.794;2023-02-25T16:52:51;156152.38;;;13.89;82.18
5350;BME280;2697;42.144;24.794;2023-02-25T16:55:22;156149.75;;;13.88;81.64